Pilar, New Mexico
Current Conditions -  °F | °C
As of 5:35 PM on Sunday 21 Dec 2014 (Local Time) from KSKX Reporting Station
Scattered Clouds Scattered Clouds  
Wind Chill: 27°   Ceiling: Unl
Heat Index: 34°   Visibility: 10mi
Dew Point: 25°   Wind: 8mph
Humidity: 70%   Direction: 240°WSW
Pressure: 29.89"   Gusts: NA
Location:  36.4227°N, 105.509°W
Report Text: KSKX 220035Z AUTO 24007KT 10SM SCT039 01/M04 A2989 RMK AO1
Loading
Personal Weather Stations






























Interactive Weather Map New forecast layout! Learn more

10-Day Weather Forecast

Advertisements
Track Severe Weather on mobile